sensor_id;sensor_type;location;lat;lon;timestamp;P1;durP1;ratioP1;P2;durP2;ratioP2
45402;SDS011;47427;51.976;5.326;2023-05-10T00:02:07;100.40;;;65.75;;
45402;SDS011;47427;51.976;5.326;2023-05-10T00:05:29;95.88;;;64.93;;
45402;SDS011;47427;51.976;5.326;2023-05-10T00:08:51;86.07;;;63.67;;
45402;SDS011;47427;51.976;5.326;2023-05-10T00:12:14;145.68;;;74.45;;
45402;SDS011;47427;51.976;5.326;2023-05-10T00:15:35;145.27;;;74.00;;
45402;SDS011;47427;51.976;5.326;2023-05-10T00:18:58;116.57;;;68.70;;
45402;SDS011;47427;51.976;5.326;2023-05-10T00:22:21;122.53;;;70.22;;
45402;SDS011;47427;51.976;5.326;2023-05-10T00:25:42;117.25;;;68.72;;
45402;SDS011;47427;51.976;5.326;2023-05-10T00:29:05;114.57;;;65.53;;
45402;SDS011;47427;51.976;5.326;2023-05-10T00:32:27;125.07;;;68.45;;
45402;SDS011;47427;51.976;5.326;2023-05-10T00:35:50;126.32;;;67.82;;
45402;SDS011;47427;51.976;5.326;2023-05-10T00:39:13;104.78;;;65.15;;
45402;SDS011;47427;51.976;5.326;2023-05-10T00:42:35;95.20;;;61.10;;
45402;SDS011;47427;51.976;5.326;2023-05-10T00:45:57;115.47;;;65.57;;
45402;SDS011;47427;51.976;5.326;2023-05-10T00:49:20;76.82;;;58.70;;
45402;SDS011;47427;51.976;5.326;2023-05-10T00:52:44;107.22;;;65.13;;
45402;SDS011;47427;51.976;5.326;2023-05-10T00:56:06;117.18;;;68.18;;
45402;SDS011;47427;51.976;5.326;2023-05-10T00:59:29;117.90;;;67.25;;
45402;SDS011;47427;51.976;5.326;2023-05-10T01:02:52;122.47;;;67.70;;
45402;SDS011;47427;51.976;5.326;2023-05-10T01:06:16;130.40;;;74.67;;
45402;SDS011;47427;51.976;5.326;2023-05-10T01:09:38;139.35;;;74.85;;
45402;SDS011;47427;51.976;5.326;2023-05-10T01:13:01;114.57;;;73.13;;
45402;SDS011;47427;51.976;5.326;2023-05-10T01:16:24;129.45;;;76.57;;
45402;SDS011;47427;51.976;5.326;2023-05-10T01:19:48;110.85;;;71.82;;
45402;SDS011;47427;51.976;5.326;2023-05-10T01:31:35;135.43;;;77.35;;
45402;SDS011;47427;51.976;5.326;2023-05-10T01:35:51;126.30;;;75.57;;
45402;SDS011;47427;51.976;5.326;2023-05-10T01:40:30;126.40;;;76.50;;
45402;SDS011;47427;51.976;5.326;2023-05-10T01:43:42;127.68;;;76.80;;
45402;SDS011;47427;51.976;5.326;2023-05-10T01:48:02;130.55;;;78.70;;
45402;SDS011;47427;51.976;5.326;2023-05-10T01:51:07;109.50;;;72.88;;
45402;SDS011;47427;51.976;5.326;2023-05-10T01:54:31;120.43;;;75.85;;
45402;SDS011;47427;51.976;5.326;2023-05-10T01:58:00;115.35;;;74.22;;
45402;SDS011;47427;51.976;5.326;2023-05-10T02:01:30;113.63;;;72.10;;
45402;SDS011;47427;51.976;5.326;2023-05-10T02:04:55;120.45;;;76.32;;
45402;SDS011;47427;51.976;5.326;2023-05-10T02:08:19;107.35;;;72.97;;
45402;SDS011;47427;51.976;5.326;2023-05-10T02:11:44;117.88;;;72.65;;
45402;SDS011;47427;51.976;5.326;2023-05-10T02:15:10;101.13;;;70.70;;
45402;SDS011;47427;51.976;5.326;2023-05-10T02:18:35;102.63;;;70.85;;
45402;SDS011;47427;51.976;5.326;2023-05-10T02:21:58;120.03;;;72.65;;
45402;SDS011;47427;51.976;5.326;2023-05-10T02:25:22;106.38;;;70.10;;
45402;SDS011;47427;51.976;5.326;2023-05-10T02:28:46;112.38;;;72.05;;
45402;SDS011;47427;51.976;5.326;2023-05-10T02:32:10;105.07;;;73.13;;
45402;SDS011;47427;51.976;5.326;2023-05-10T02:35:33;105.90;;;71.07;;
45402;SDS011;47427;51.976;5.326;2023-05-10T02:38:57;109.82;;;70.82;;
45402;SDS011;47427;51.976;5.326;2023-05-10T02:42:27;107.13;;;73.78;;
45402;SDS011;47427;51.976;5.326;2023-05-10T02:45:52;111.00;;;73.50;;
45402;SDS011;47427;51.976;5.326;2023-05-10T02:49:15;107.70;;;75.70;;
45402;SDS011;47427;51.976;5.326;2023-05-10T02:52:42;100.68;;;70.60;;
45402;SDS011;47427;51.976;5.326;2023-05-10T02:56:12;97.95;;;68.35;;
45402;SDS011;47427;51.976;5.326;2023-05-10T02:59:45;106.27;;;68.60;;
45402;SDS011;47427;51.976;5.326;2023-05-10T03:03:08;107.35;;;72.68;;
45402;SDS011;47427;51.976;5.326;2023-05-10T03:06:31;94.85;;;69.32;;
45402;SDS011;47427;51.976;5.326;2023-05-10T03:09:52;94.22;;;65.68;;
45402;SDS011;47427;51.976;5.326;2023-05-10T03:17:11;92.32;;;64.15;;
45402;SDS011;47427;51.976;5.326;2023-05-10T03:20:42;82.45;;;62.25;;
45402;SDS011;47427;51.976;5.326;2023-05-10T03:24:10;98.60;;;64.97;;
45402;SDS011;47427;51.976;5.326;2023-05-10T03:27:37;90.53;;;63.28;;
45402;SDS011;47427;51.976;5.326;2023-05-10T03:31:06;93.53;;;63.45;;
45402;SDS011;47427;51.976;5.326;2023-05-10T03:34:29;91.20;;;63.03;;
45402;SDS011;47427;51.976;5.326;2023-05-10T03:37:55;94.00;;;63.38;;
45402;SDS011;47427;51.976;5.326;2023-05-10T03:41:18;120.90;;;66.55;;
45402;SDS011;47427;51.976;5.326;2023-05-10T03:44:41;92.63;;;61.10;;
45402;SDS011;47427;51.976;5.326;2023-05-10T03:48:04;88.13;;;62.17;;
45402;SDS011;47427;51.976;5.326;2023-05-10T03:51:27;94.60;;;64.57;;
45402;SDS011;47427;51.976;5.326;2023-05-10T03:54:49;124.28;;;71.03;;
45402;SDS011;47427;51.976;5.326;2023-05-10T03:58:13;102.63;;;66.35;;
45402;SDS011;47427;51.976;5.326;2023-05-10T04:01:34;102.53;;;66.70;;
45402;SDS011;47427;51.976;5.326;2023-05-10T04:04:57;105.63;;;68.93;;
45402;SDS011;47427;51.976;5.326;2023-05-10T04:08:20;102.53;;;66.70;;
45402;SDS011;47427;51.976;5.326;2023-05-10T04:11:41;107.00;;;65.60;;
45402;SDS011;47427;51.976;5.326;2023-05-10T04:15:04;126.07;;;73.03;;
45402;SDS011;47427;51.976;5.326;2023-05-10T04:18:28;95.47;;;65.28;;
45402;SDS011;47427;51.976;5.326;2023-05-10T04:21:50;116.75;;;70.15;;
45402;SDS011;47427;51.976;5.326;2023-05-10T04:25:12;88.05;;;66.07;;
45402;SDS011;47427;51.976;5.326;2023-05-10T04:28:35;143.50;;;74.90;;
45402;SDS011;47427;51.976;5.326;2023-05-10T04:31:56;94.55;;;67.25;;
45402;SDS011;47427;51.976;5.326;2023-05-10T04:35:19;111.13;;;69.80;;
45402;SDS011;47427;51.976;5.326;2023-05-10T04:38:41;93.13;;;65.00;;
45402;SDS011;47427;51.976;5.326;2023-05-10T04:42:04;111.63;;;70.00;;
45402;SDS011;47427;51.976;5.326;2023-05-10T04:45:27;112.45;;;66.65;;
45402;SDS011;47427;51.976;5.326;2023-05-10T04:48:49;94.93;;;68.10;;
45402;SDS011;47427;51.976;5.326;2023-05-10T04:52:30;109.38;;;68.75;;
45402;SDS011;47427;51.976;5.326;2023-05-10T04:55:53;87.63;;;62.03;;
45402;SDS011;47427;51.976;5.326;2023-05-10T04:59:16;101.82;;;65.22;;
45402;SDS011;47427;51.976;5.326;2023-05-10T05:02:41;107.72;;;68.22;;
45402;SDS011;47427;51.976;5.326;2023-05-10T05:06:06;120.85;;;72.78;;
45402;SDS011;47427;51.976;5.326;2023-05-10T05:09:29;106.78;;;70.10;;
45402;SDS011;47427;51.976;5.326;2023-05-10T05:12:53;114.40;;;73.03;;
45402;SDS011;47427;51.976;5.326;2023-05-10T05:16:15;127.35;;;73.88;;
45402;SDS011;47427;51.976;5.326;2023-05-10T05:19:37;107.65;;;73.80;;
45402;SDS011;47427;51.976;5.326;2023-05-10T05:23:01;126.75;;;73.95;;
45402;SDS011;47427;51.976;5.326;2023-05-10T05:26:22;126.05;;;79.82;;
45402;SDS011;47427;51.976;5.326;2023-05-10T05:29:45;120.20;;;80.20;;
45402;SDS011;47427;51.976;5.326;2023-05-10T05:33:06;137.32;;;80.13;;
45402;SDS011;47427;51.976;5.326;2023-05-10T05:36:29;149.63;;;86.43;;
45402;SDS011;47427;51.976;5.326;2023-05-10T05:39:53;153.95;;;88.93;;
45402;SDS011;47427;51.976;5.326;2023-05-10T05:43:15;167.63;;;86.20;;
45402;SDS011;47427;51.976;5.326;2023-05-10T05:46:38;144.55;;;87.28;;
45402;SDS011;47427;51.976;5.326;2023-05-10T05:50:01;150.25;;;87.38;;
45402;SDS011;47427;51.976;5.326;2023-05-10T05:53:22;155.50;;;87.68;;
45402;SDS011;47427;51.976;5.326;2023-05-10T05:56:46;145.60;;;87.43;;
45402;SDS011;47427;51.976;5.326;2023-05-10T06:00:07;132.35;;;85.97;;
45402;SDS011;47427;51.976;5.326;2023-05-10T06:03:33;153.20;;;90.15;;
45402;SDS011;47427;51.976;5.326;2023-05-10T06:06:56;135.70;;;84.30;;
45402;SDS011;47427;51.976;5.326;2023-05-10T06:10:17;130.27;;;85.28;;
45402;SDS011;47427;51.976;5.326;2023-05-10T06:13:40;129.82;;;85.20;;
45402;SDS011;47427;51.976;5.326;2023-05-10T06:17:04;117.85;;;80.30;;
45402;SDS011;47427;51.976;5.326;2023-05-10T06:20:25;128.60;;;83.32;;
45402;SDS011;47427;51.976;5.326;2023-05-10T06:23:48;127.05;;;83.05;;
45402;SDS011;47427;51.976;5.326;2023-05-10T06:27:10;109.85;;;78.15;;
45402;SDS011;47427;51.976;5.326;2023-05-10T06:30:32;105.70;;;77.03;;
45402;SDS011;47427;51.976;5.326;2023-05-10T06:33:55;114.72;;;79.40;;
45402;SDS011;47427;51.976;5.326;2023-05-10T06:37:16;135.73;;;82.53;;
45402;SDS011;47427;51.976;5.326;2023-05-10T06:40:42;119.00;;;77.57;;
45402;SDS011;47427;51.976;5.326;2023-05-10T06:47:27;120.80;;;79.63;;
45402;SDS011;47427;51.976;5.326;2023-05-10T06:50:49;107.72;;;74.55;;
45402;SDS011;47427;51.976;5.326;2023-05-10T06:54:11;116.53;;;75.00;;
45402;SDS011;47427;51.976;5.326;2023-05-10T06:57:34;108.22;;;73.53;;
45402;SDS011;47427;51.976;5.326;2023-05-10T07:01:01;103.28;;;71.28;;
45402;SDS011;47427;51.976;5.326;2023-05-10T07:04:24;84.20;;;65.72;;
45402;SDS011;47427;51.976;5.326;2023-05-10T07:07:47;74.18;;;61.08;;
45402;SDS011;47427;51.976;5.326;2023-05-10T07:11:10;68.28;;;55.83;;
45402;SDS011;47427;51.976;5.326;2023-05-10T07:14:33;58.58;;;48.05;;
45402;SDS011;47427;51.976;5.326;2023-05-10T07:17:55;50.08;;;44.70;;
45402;SDS011;47427;51.976;5.326;2023-05-10T07:21:17;47.15;;;42.10;;
45402;SDS011;47427;51.976;5.326;2023-05-10T07:24:39;46.53;;;42.13;;
45402;SDS011;47427;51.976;5.326;2023-05-10T07:28:02;41.15;;;37.05;;
45402;SDS011;47427;51.976;5.326;2023-05-10T07:31:24;41.65;;;37.83;;
45402;SDS011;47427;51.976;5.326;2023-05-10T07:34:46;41.10;;;37.08;;
45402;SDS011;47427;51.976;5.326;2023-05-10T07:38:09;37.50;;;33.90;;
45402;SDS011;47427;51.976;5.326;2023-05-10T07:41:33;37.00;;;33.83;;
45402;SDS011;47427;51.976;5.326;2023-05-10T07:44:56;37.03;;;33.42;;
45402;SDS011;47427;51.976;5.326;2023-05-10T07:48:19;31.58;;;29.15;;
45402;SDS011;47427;51.976;5.326;2023-05-10T07:51:42;31.35;;;28.88;;
45402;SDS011;47427;51.976;5.326;2023-05-10T07:55:05;29.13;;;27.05;;
45402;SDS011;47427;51.976;5.326;2023-05-10T07:58:28;31.30;;;29.00;;
45402;SDS011;47427;51.976;5.326;2023-05-10T08:01:50;32.72;;;30.15;;
45402;SDS011;47427;51.976;5.326;2023-05-10T08:05:13;32.85;;;30.13;;
45402;SDS011;47427;51.976;5.326;2023-05-10T08:08:36;32.35;;;29.90;;
45402;SDS011;47427;51.976;5.326;2023-05-10T08:11:59;34.90;;;31.92;;
45402;SDS011;47427;51.976;5.326;2023-05-10T08:15:22;35.50;;;32.28;;
45402;SDS011;47427;51.976;5.326;2023-05-10T08:18:44;35.63;;;32.70;;
45402;SDS011;47427;51.976;5.326;2023-05-10T08:22:08;35.67;;;32.88;;
45402;SDS011;47427;51.976;5.326;2023-05-10T08:25:30;37.50;;;34.28;;
45402;SDS011;47427;51.976;5.326;2023-05-10T08:28:53;38.33;;;35.15;;
45402;SDS011;47427;51.976;5.326;2023-05-10T08:32:16;38.00;;;34.47;;
45402;SDS011;47427;51.976;5.326;2023-05-10T08:35:38;37.08;;;33.80;;
45402;SDS011;47427;51.976;5.326;2023-05-10T08:39:01;36.15;;;32.88;;
45402;SDS011;47427;51.976;5.326;2023-05-10T08:42:24;37.13;;;33.53;;
45402;SDS011;47427;51.976;5.326;2023-05-10T08:45:49;35.22;;;32.40;;
45402;SDS011;47427;51.976;5.326;2023-05-10T08:49:16;34.40;;;31.70;;
45402;SDS011;47427;51.976;5.326;2023-05-10T08:52:40;33.55;;;30.70;;
45402;SDS011;47427;51.976;5.326;2023-05-10T08:56:02;34.25;;;31.50;;
45402;SDS011;47427;51.976;5.326;2023-05-10T08:59:27;36.15;;;32.88;;
45402;SDS011;47427;51.976;5.326;2023-05-10T09:02:50;34.28;;;31.58;;
45402;SDS011;47427;51.976;5.326;2023-05-10T09:06:14;34.65;;;31.92;;
45402;SDS011;47427;51.976;5.326;2023-05-10T09:09:37;34.72;;;31.98;;
45402;SDS011;47427;51.976;5.326;2023-05-10T09:12:59;34.88;;;31.80;;
45402;SDS011;47427;51.976;5.326;2023-05-10T09:16:23;33.55;;;30.85;;
45402;SDS011;47427;51.976;5.326;2023-05-10T09:19:46;33.47;;;30.60;;
45402;SDS011;47427;51.976;5.326;2023-05-10T09:23:07;32.90;;;30.08;;
45402;SDS011;47427;51.976;5.326;2023-05-10T09:26:30;32.45;;;29.95;;
45402;SDS011;47427;51.976;5.326;2023-05-10T09:29:53;31.92;;;29.27;;
45402;SDS011;47427;51.976;5.326;2023-05-10T09:33:16;33.45;;;30.48;;
45402;SDS011;47427;51.976;5.326;2023-05-10T09:36:56;32.70;;;29.90;;
45402;SDS011;47427;51.976;5.326;2023-05-10T09:40:25;32.17;;;29.48;;
45402;SDS011;47427;51.976;5.326;2023-05-10T09:43:50;32.10;;;29.40;;
45402;SDS011;47427;51.976;5.326;2023-05-10T09:47:17;32.70;;;29.98;;
45402;SDS011;47427;51.976;5.326;2023-05-10T09:50:42;33.25;;;30.23;;
45402;SDS011;47427;51.976;5.326;2023-05-10T09:54:14;29.73;;;27.52;;
45402;SDS011;47427;51.976;5.326;2023-05-10T09:57:38;29.88;;;27.58;;
45402;SDS011;47427;51.976;5.326;2023-05-10T10:01:02;28.48;;;25.92;;
45402;SDS011;47427;51.976;5.326;2023-05-10T10:04:45;28.15;;;25.95;;
45402;SDS011;47427;51.976;5.326;2023-05-10T10:08:10;26.40;;;24.48;;
45402;SDS011;47427;51.976;5.326;2023-05-10T10:11:34;28.27;;;25.73;;
45402;SDS011;47427;51.976;5.326;2023-05-10T10:14:58;27.30;;;25.40;;
45402;SDS011;47427;51.976;5.326;2023-05-10T10:18:23;28.63;;;26.30;;
45402;SDS011;47427;51.976;5.326;2023-05-10T10:21:49;27.20;;;25.25;;
45402;SDS011;47427;51.976;5.326;2023-05-10T10:25:11;26.60;;;24.98;;
45402;SDS011;47427;51.976;5.326;2023-05-10T10:32:37;26.77;;;25.00;;
45402;SDS011;47427;51.976;5.326;2023-05-10T10:36:45;25.48;;;23.75;;
45402;SDS011;47427;51.976;5.326;2023-05-10T10:40:27;26.02;;;24.23;;
45402;SDS011;47427;51.976;5.326;2023-05-10T10:48:19;25.40;;;23.80;;
45402;SDS011;47427;51.976;5.326;2023-05-10T10:52:12;26.90;;;24.80;;
45402;SDS011;47427;51.976;5.326;2023-05-10T10:55:47;27.02;;;25.05;;
45402;SDS011;47427;51.976;5.326;2023-05-10T10:59:10;27.98;;;25.98;;
45402;SDS011;47427;51.976;5.326;2023-05-10T11:02:34;28.05;;;25.95;;
45402;SDS011;47427;51.976;5.326;2023-05-10T11:06:02;27.77;;;25.67;;
45402;SDS011;47427;51.976;5.326;2023-05-10T11:09:23;25.95;;;24.08;;
45402;SDS011;47427;51.976;5.326;2023-05-10T11:12:50;26.45;;;24.65;;
45402;SDS011;47427;51.976;5.326;2023-05-10T11:16:25;24.20;;;22.65;;
45402;SDS011;47427;51.976;5.326;2023-05-10T11:27:07;24.17;;;22.50;;
45402;SDS011;47427;51.976;5.326;2023-05-10T11:30:30;23.35;;;21.80;;
45402;SDS011;47427;51.976;5.326;2023-05-10T11:33:52;24.23;;;22.63;;
45402;SDS011;47427;51.976;5.326;2023-05-10T11:40:40;25.17;;;23.40;;
45402;SDS011;47427;51.976;5.326;2023-05-10T11:44:01;26.85;;;25.02;;
45402;SDS011;47427;51.976;5.326;2023-05-10T11:47:24;27.10;;;25.15;;
45402;SDS011;47427;51.976;5.326;2023-05-10T11:50:45;27.08;;;25.13;;
45402;SDS011;47427;51.976;5.326;2023-05-10T11:54:09;25.30;;;23.55;;
45402;SDS011;47427;51.976;5.326;2023-05-10T11:57:33;25.88;;;24.00;;
45402;SDS011;47427;51.976;5.326;2023-05-10T12:00:55;26.83;;;24.90;;
45402;SDS011;47427;51.976;5.326;2023-05-10T12:04:19;25.80;;;24.00;;
45402;SDS011;47427;51.976;5.326;2023-05-10T12:07:42;27.73;;;25.73;;
45402;SDS011;47427;51.976;5.326;2023-05-10T12:11:05;29.35;;;26.85;;
45402;SDS011;47427;51.976;5.326;2023-05-10T12:14:33;32.03;;;29.17;;
45402;SDS011;47427;51.976;5.326;2023-05-10T12:17:56;31.63;;;29.17;;
45402;SDS011;47427;51.976;5.326;2023-05-10T12:21:19;31.55;;;28.77;;
45402;SDS011;47427;51.976;5.326;2023-05-10T12:24:43;29.40;;;27.23;;
45402;SDS011;47427;51.976;5.326;2023-05-10T12:28:07;31.48;;;29.25;;
45402;SDS011;47427;51.976;5.326;2023-05-10T12:31:31;31.33;;;29.03;;
45402;SDS011;47427;51.976;5.326;2023-05-10T12:34:54;28.13;;;26.33;;
45402;SDS011;47427;51.976;5.326;2023-05-10T12:38:28;27.00;;;25.00;;
45402;SDS011;47427;51.976;5.326;2023-05-10T12:41:54;25.25;;;23.40;;
45402;SDS011;47427;51.976;5.326;2023-05-10T12:45:16;26.38;;;24.67;;
45402;SDS011;47427;51.976;5.326;2023-05-10T12:48:40;26.70;;;25.00;;
45402;SDS011;47427;51.976;5.326;2023-05-10T12:52:04;24.67;;;23.10;;
45402;SDS011;47427;51.976;5.326;2023-05-10T12:55:25;25.15;;;23.48;;
45402;SDS011;47427;51.976;5.326;2023-05-10T12:58:48;24.48;;;22.88;;
45402;SDS011;47427;51.976;5.326;2023-05-10T13:02:11;24.20;;;22.60;;
45402;SDS011;47427;51.976;5.326;2023-05-10T13:05:34;26.95;;;25.35;;
45402;SDS011;47427;51.976;5.326;2023-05-10T13:08:57;27.10;;;25.40;;
45402;SDS011;47427;51.976;5.326;2023-05-10T13:12:18;26.92;;;25.25;;
45402;SDS011;47427;51.976;5.326;2023-05-10T13:15:41;29.05;;;27.10;;
45402;SDS011;47427;51.976;5.326;2023-05-10T13:19:04;27.92;;;26.10;;
45402;SDS011;47427;51.976;5.326;2023-05-10T13:22:25;30.30;;;28.20;;
45402;SDS011;47427;51.976;5.326;2023-05-10T13:25:48;29.00;;;26.83;;
45402;SDS011;47427;51.976;5.326;2023-05-10T13:29:11;30.55;;;28.15;;
45402;SDS011;47427;51.976;5.326;2023-05-10T13:32:34;31.30;;;28.73;;
45402;SDS011;47427;51.976;5.326;2023-05-10T13:35:57;33.13;;;30.08;;
45402;SDS011;47427;51.976;5.326;2023-05-10T13:39:20;33.05;;;30.25;;
45402;SDS011;47427;51.976;5.326;2023-05-10T13:42:42;30.42;;;28.13;;
45402;SDS011;47427;51.976;5.326;2023-05-10T13:46:05;31.13;;;28.48;;
45402;SDS011;47427;51.976;5.326;2023-05-10T13:49:27;30.27;;;27.90;;
45402;SDS011;47427;51.976;5.326;2023-05-10T13:52:49;31.05;;;28.38;;
45402;SDS011;47427;51.976;5.326;2023-05-10T13:56:12;31.48;;;28.88;;
45402;SDS011;47427;51.976;5.326;2023-05-10T13:59:34;32.05;;;29.17;;
45402;SDS011;47427;51.976;5.326;2023-05-10T14:02:57;31.75;;;29.35;;
45402;SDS011;47427;51.976;5.326;2023-05-10T14:06:20;31.98;;;29.58;;
45402;SDS011;47427;51.976;5.326;2023-05-10T14:09:42;33.15;;;30.27;;
45402;SDS011;47427;51.976;5.326;2023-05-10T14:13:05;33.75;;;31.15;;
45402;SDS011;47427;51.976;5.326;2023-05-10T14:16:28;34.33;;;31.17;;
45402;SDS011;47427;51.976;5.326;2023-05-10T14:19:49;34.80;;;31.70;;
45402;SDS011;47427;51.976;5.326;2023-05-10T14:23:12;33.33;;;30.67;;
45402;SDS011;47427;51.976;5.326;2023-05-10T14:26:33;34.58;;;31.77;;
45402;SDS011;47427;51.976;5.326;2023-05-10T14:29:57;32.55;;;29.65;;
45402;SDS011;47427;51.976;5.326;2023-05-10T14:33:19;32.15;;;29.55;;
45402;SDS011;47427;51.976;5.326;2023-05-10T14:36:41;32.78;;;30.15;;
45402;SDS011;47427;51.976;5.326;2023-05-10T14:40:04;31.63;;;29.08;;
45402;SDS011;47427;51.976;5.326;2023-05-10T14:43:28;31.08;;;28.55;;
45402;SDS011;47427;51.976;5.326;2023-05-10T14:46:51;30.63;;;28.10;;
45402;SDS011;47427;51.976;5.326;2023-05-10T14:50:13;32.35;;;29.30;;
45402;SDS011;47427;51.976;5.326;2023-05-10T14:53:37;32.08;;;29.52;;
45402;SDS011;47427;51.976;5.326;2023-05-10T14:56:58;30.70;;;28.23;;
45402;SDS011;47427;51.976;5.326;2023-05-10T15:00:22;32.42;;;29.80;;
45402;SDS011;47427;51.976;5.326;2023-05-10T15:03:43;31.05;;;28.63;;
45402;SDS011;47427;51.976;5.326;2023-05-10T15:07:05;31.83;;;29.23;;
45402;SDS011;47427;51.976;5.326;2023-05-10T15:10:27;31.20;;;28.67;;
45402;SDS011;47427;51.976;5.326;2023-05-10T15:13:49;31.98;;;29.05;;
45402;SDS011;47427;51.976;5.326;2023-05-10T15:17:12;31.70;;;29.08;;
45402;SDS011;47427;51.976;5.326;2023-05-10T15:20:34;31.13;;;28.63;;
45402;SDS011;47427;51.976;5.326;2023-05-10T15:23:56;31.42;;;28.80;;
45402;SDS011;47427;51.976;5.326;2023-05-10T15:27:18;30.80;;;28.30;;
45402;SDS011;47427;51.976;5.326;2023-05-10T15:30:41;32.97;;;30.30;;
45402;SDS011;47427;51.976;5.326;2023-05-10T15:34:02;32.55;;;29.83;;
45402;SDS011;47427;51.976;5.326;2023-05-10T15:37:25;32.20;;;29.50;;
45402;SDS011;47427;51.976;5.326;2023-05-10T15:40:48;33.70;;;30.83;;
45402;SDS011;47427;51.976;5.326;2023-05-10T15:44:10;32.30;;;29.65;;
45402;SDS011;47427;51.976;5.326;2023-05-10T15:47:32;32.90;;;30.02;;
45402;SDS011;47427;51.976;5.326;2023-05-10T15:50:54;34.88;;;31.60;;
45402;SDS011;47427;51.976;5.326;2023-05-10T15:54:17;34.08;;;30.73;;
45402;SDS011;47427;51.976;5.326;2023-05-10T15:57:40;33.45;;;30.58;;
45402;SDS011;47427;51.976;5.326;2023-05-10T16:01:03;33.38;;;30.38;;
45402;SDS011;47427;51.976;5.326;2023-05-10T16:04:29;32.20;;;29.35;;
45402;SDS011;47427;51.976;5.326;2023-05-10T16:07:51;32.13;;;29.42;;
45402;SDS011;47427;51.976;5.326;2023-05-10T16:11:14;31.73;;;28.80;;
45402;SDS011;47427;51.976;5.326;2023-05-10T16:14:37;32.38;;;29.85;;
45402;SDS011;47427;51.976;5.326;2023-05-10T16:17:58;30.90;;;28.55;;
45402;SDS011;47427;51.976;5.326;2023-05-10T16:21:21;31.73;;;29.13;;
45402;SDS011;47427;51.976;5.326;2023-05-10T16:24:44;30.50;;;28.20;;
45402;SDS011;47427;51.976;5.326;2023-05-10T16:28:06;32.50;;;29.77;;
45402;SDS011;47427;51.976;5.326;2023-05-10T16:31:28;31.63;;;29.00;;
45402;SDS011;47427;51.976;5.326;2023-05-10T16:34:51;29.98;;;27.58;;
45402;SDS011;47427;51.976;5.326;2023-05-10T16:38:33;32.17;;;29.02;;
45402;SDS011;47427;51.976;5.326;2023-05-10T16:41:55;32.88;;;29.95;;
45402;SDS011;47427;51.976;5.326;2023-05-10T16:45:17;32.05;;;29.60;;
45402;SDS011;47427;51.976;5.326;2023-05-10T16:48:59;31.30;;;28.38;;
45402;SDS011;47427;51.976;5.326;2023-05-10T16:52:20;30.38;;;28.00;;
45402;SDS011;47427;51.976;5.326;2023-05-10T16:55:43;31.42;;;28.33;;
45402;SDS011;47427;51.976;5.326;2023-05-10T16:59:05;31.05;;;28.70;;
45402;SDS011;47427;51.976;5.326;2023-05-10T17:02:28;30.70;;;28.40;;
45402;SDS011;47427;51.976;5.326;2023-05-10T17:05:50;31.83;;;29.38;;
45402;SDS011;47427;51.976;5.326;2023-05-10T17:09:12;31.90;;;29.13;;
45402;SDS011;47427;51.976;5.326;2023-05-10T17:12:34;31.02;;;28.52;;
45402;SDS011;47427;51.976;5.326;2023-05-10T17:15:57;31.15;;;28.77;;
45402;SDS011;47427;51.976;5.326;2023-05-10T17:19:23;31.70;;;29.02;;
45402;SDS011;47427;51.976;5.326;2023-05-10T17:22:45;32.33;;;29.73;;
45402;SDS011;47427;51.976;5.326;2023-05-10T17:26:07;31.02;;;28.42;;
45402;SDS011;47427;51.976;5.326;2023-05-10T17:29:30;30.08;;;27.90;;
45402;SDS011;47427;51.976;5.326;2023-05-10T17:32:52;31.60;;;28.70;;
45402;SDS011;47427;51.976;5.326;2023-05-10T17:36:15;31.05;;;28.52;;
45402;SDS011;47427;51.976;5.326;2023-05-10T17:39:36;30.38;;;28.05;;
45402;SDS011;47427;51.976;5.326;2023-05-10T17:42:59;31.00;;;28.30;;
45402;SDS011;47427;51.976;5.326;2023-05-10T17:46:22;33.80;;;29.17;;
45402;SDS011;47427;51.976;5.326;2023-05-10T17:49:43;31.48;;;28.75;;
45402;SDS011;47427;51.976;5.326;2023-05-10T17:53:06;32.10;;;29.40;;
45402;SDS011;47427;51.976;5.326;2023-05-10T17:56:29;33.25;;;30.10;;
45402;SDS011;47427;51.976;5.326;2023-05-10T17:59:50;34.00;;;31.02;;
45402;SDS011;47427;51.976;5.326;2023-05-10T18:03:13;34.78;;;31.25;;
45402;SDS011;47427;51.976;5.326;2023-05-10T18:06:35;34.03;;;31.10;;
45402;SDS011;47427;51.976;5.326;2023-05-10T18:09:58;37.30;;;31.58;;
45402;SDS011;47427;51.976;5.326;2023-05-10T18:13:21;32.50;;;29.80;;
45402;SDS011;47427;51.976;5.326;2023-05-10T18:16:45;40.75;;;32.15;;
45402;SDS011;47427;51.976;5.326;2023-05-10T18:20:08;33.55;;;30.40;;
45402;SDS011;47427;51.976;5.326;2023-05-10T18:23:31;41.38;;;32.70;;
45402;SDS011;47427;51.976;5.326;2023-05-10T18:26:52;35.53;;;31.75;;
45402;SDS011;47427;51.976;5.326;2023-05-10T18:30:15;35.38;;;31.88;;
45402;SDS011;47427;51.976;5.326;2023-05-10T18:33:38;35.08;;;32.15;;
45402;SDS011;47427;51.976;5.326;2023-05-10T18:36:59;37.80;;;31.27;;
45402;SDS011;47427;51.976;5.326;2023-05-10T18:40:27;35.28;;;32.08;;
45402;SDS011;47427;51.976;5.326;2023-05-10T18:43:51;34.30;;;31.40;;
45402;SDS011;47427;51.976;5.326;2023-05-10T18:47:13;36.28;;;32.53;;
45402;SDS011;47427;51.976;5.326;2023-05-10T18:50:36;36.83;;;33.20;;
45402;SDS011;47427;51.976;5.326;2023-05-10T18:53:58;39.33;;;31.38;;
45402;SDS011;47427;51.976;5.326;2023-05-10T18:57:21;35.30;;;31.92;;
45402;SDS011;47427;51.976;5.326;2023-05-10T19:01:04;35.30;;;32.15;;
45402;SDS011;47427;51.976;5.326;2023-05-10T19:04:26;37.38;;;33.58;;
45402;SDS011;47427;51.976;5.326;2023-05-10T19:07:49;36.58;;;33.47;;
45402;SDS011;47427;51.976;5.326;2023-05-10T19:11:10;36.67;;;33.28;;
45402;SDS011;47427;51.976;5.326;2023-05-10T19:14:33;38.15;;;34.58;;
45402;SDS011;47427;51.976;5.326;2023-05-10T19:17:56;36.40;;;33.10;;
45402;SDS011;47427;51.976;5.326;2023-05-10T19:21:17;36.88;;;33.80;;
45402;SDS011;47427;51.976;5.326;2023-05-10T19:24:40;37.05;;;33.65;;
45402;SDS011;47427;51.976;5.326;2023-05-10T19:28:03;38.75;;;34.88;;
45402;SDS011;47427;51.976;5.326;2023-05-10T19:31:24;35.53;;;32.58;;
45402;SDS011;47427;51.976;5.326;2023-05-10T19:34:47;37.03;;;33.08;;
45402;SDS011;47427;51.976;5.326;2023-05-10T19:38:09;35.40;;;32.13;;
45402;SDS011;47427;51.976;5.326;2023-05-10T19:41:31;33.60;;;30.65;;
45402;SDS011;47427;51.976;5.326;2023-05-10T19:44:54;34.33;;;31.23;;
45402;SDS011;47427;51.976;5.326;2023-05-10T19:48:15;34.20;;;31.02;;
45402;SDS011;47427;51.976;5.326;2023-05-10T19:51:57;35.35;;;32.13;;
45402;SDS011;47427;51.976;5.326;2023-05-10T19:55:28;35.15;;;31.73;;
45402;SDS011;47427;51.976;5.326;2023-05-10T19:58:50;35.28;;;31.95;;
45402;SDS011;47427;51.976;5.326;2023-05-10T20:02:12;34.53;;;31.45;;
45402;SDS011;47427;51.976;5.326;2023-05-10T20:05:33;35.95;;;32.22;;
45402;SDS011;47427;51.976;5.326;2023-05-10T20:08:56;34.67;;;31.75;;
45402;SDS011;47427;51.976;5.326;2023-05-10T20:12:19;34.60;;;31.70;;
45402;SDS011;47427;51.976;5.326;2023-05-10T20:15:40;35.53;;;31.90;;
45402;SDS011;47427;51.976;5.326;2023-05-10T20:19:03;35.40;;;32.13;;
45402;SDS011;47427;51.976;5.326;2023-05-10T20:22:25;35.95;;;32.83;;
45402;SDS011;47427;51.976;5.326;2023-05-10T20:25:48;38.65;;;34.67;;